Time;durP1;ratioP1;P1;durP2;ratioP2;P2;SDS_P1;SDS_P2;PMS_P1;PMS_P2;Temp;Humidity;BMP_temperature;BMP_pressure;BME280_temperature;BME280_humidity;BME280_pressure;Samples;Min_cycle;Max_cycle;Signal;HPM_P1;HPM_P2
2022/06/02 00:01:13;;;;;;;0.60;0.60;;;6.00;99.90;;;;;;5082612;28;20203;-79
2022/06/02 00:04:01;;;;;;;0.57;0.57;;;6.00;99.90;;;;;;5082076;28;20215;-79
2022/06/02 00:06:37;;;;;;;0.60;0.60;;;6.00;99.90;;;;;;5082159;28;20196;-80
2022/06/02 00:09:28;;;;;;;0.50;0.50;;;6.00;99.90;;;;;;5082022;28;20192;-81
2022/06/02 00:12:24;;;;;;;0.63;0.63;;;6.10;99.90;;;;;;5065644;28;20197;-81
2022/06/02 00:15:09;;;;;;;0.60;0.60;;;6.10;99.90;;;;;;5061961;28;20426;-80
2022/06/02 00:18:03;;;;;;;0.50;0.50;;;6.10;99.90;;;;;;5061252;28;20220;-80
2022/06/02 00:20:43;;;;;;;0.52;0.52;;;6.10;99.90;;;;;;5060809;28;20240;-80
2022/06/02 00:23:27;;;;;;;0.70;0.70;;;6.10;99.90;;;;;;5061730;28;20223;-79
2022/06/02 00:26:19;;;;;;;0.50;0.50;;;6.10;99.90;;;;;;5079535;28;20662;-80
2022/06/02 00:28:56;;;;;;;0.60;0.60;;;6.00;99.90;;;;;;5061782;28;20283;-80
2022/06/02 00:31:40;;;;;;;0.70;0.70;;;6.00;99.90;;;;;;5061115;28;20192;-80
2022/06/02 00:34:29;;;;;;;1.13;1.05;;;5.90;99.90;;;;;;5047386;28;20783;-80
2022/06/02 00:37:10;;;;;;;0.60;0.60;;;5.90;99.90;;;;;;5023166;28;20201;-78
2022/06/02 00:39:38;;;;;;;0.60;0.60;;;5.80;99.90;;;;;;5041791;28;20259;-79
2022/06/02 00:42:28;;;;;;;0.60;0.60;;;5.80;99.90;;;;;;5041308;28;20224;-81
2022/06/02 00:45:15;;;;;;;0.57;0.57;;;5.80;99.90;;;;;;5041687;28;20684;-79
2022/06/02 00:48:06;;;;;;;0.70;0.70;;;5.70;99.90;;;;;;5043227;28;20193;-80
2022/06/02 00:51:02;;;;;;;0.50;0.50;;;5.70;99.90;;;;;;5060994;28;20196;-79
2022/06/02 00:57:30;;;;;;;0.60;0.60;;;5.60;99.90;;;;;;5061173;28;20197;-80
2022/06/02 00:59:52;;;;;;;0.70;0.70;;;5.60;99.90;;;;;;5059450;28;20216;-79
2022/06/02 01:02:19;;;;;;;0.60;0.60;;;5.50;99.90;;;;;;5058667;28;20196;-79
2022/06/02 01:04:45;;;;;;;0.63;0.63;;;5.50;99.90;;;;;;5041146;28;20235;-79
2022/06/02 01:07:20;;;;;;;0.70;0.70;;;5.50;99.90;;;;;;5040294;28;20194;-79
2022/06/02 01:10:02;;;;;;;0.57;0.57;;;5.50;99.90;;;;;;5040384;28;20242;-78
2022/06/02 01:12:38;;;;;;;0.50;0.50;;;5.60;99.90;;;;;;5058399;28;20318;-79
2022/06/02 01:15:28;;;;;;;0.50;0.50;;;5.60;99.90;;;;;;5040769;28;20268;-80
2022/06/02 01:18:15;;;;;;;0.50;0.50;;;5.60;99.90;;;;;;5040819;28;20202;-78
2022/06/02 01:20:59;;;;;;;0.77;0.77;;;5.60;99.90;;;;;;5072743;28;20234;-80
2022/06/02 01:24:03;;;;;;;0.50;0.50;;;5.70;99.90;;;;;;5080452;28;20207;-78
2022/06/02 01:26:28;;;;;;;0.60;0.60;;;5.70;99.90;;;;;;5099366;28;20514;-79
2022/06/02 01:29:06;;;;;;;0.85;0.73;;;5.80;99.90;;;;;;5098976;28;20218;-80
2022/06/02 01:31:48;;;;;;;0.60;0.60;;;5.80;99.90;;;;;;5040573;28;20659;-78
2022/06/02 01:34:23;;;;;;;0.65;0.65;;;5.90;99.90;;;;;;5073138;28;20188;-79
2022/06/02 01:37:16;;;;;;;0.60;0.60;;;5.90;99.90;;;;;;5077077;28;20678;-79
2022/06/02 01:40:04;;;;;;;0.60;0.60;;;5.90;99.90;;;;;;5077337;28;20246;-78
2022/06/02 01:42:56;;;;;;;0.57;0.57;;;5.90;99.90;;;;;;5078311;28;20246;-78
2022/06/02 01:45:42;;;;;;;1.52;1.42;;;5.90;99.90;;;;;;5079842;28;20283;-79
2022/06/02 01:48:17;;;;;;;0.63;0.63;;;5.90;99.90;;;;;;5057383;28;20227;-78
2022/06/02 01:51:00;;;;;;;0.80;0.80;;;6.00;99.90;;;;;;5097173;28;20227;-80
2022/06/02 01:53:44;;;;;;;0.60;0.60;;;6.00;99.90;;;;;;5097383;28;20200;-78
2022/06/02 01:56:53;;;;;;;0.60;0.60;;;6.00;99.90;;;;;;5080324;28;20192;-79
2022/06/02 01:59:27;;;;;;;0.60;0.60;;;5.90;99.90;;;;;;5078971;28;20211;-79
2022/06/02 02:02:18;;;;;;;0.57;0.57;;;5.90;99.90;;;;;;5062886;28;20197;-79
2022/06/02 02:04:43;;;;;;;1.35;1.25;;;5.80;99.90;;;;;;5078076;28;20204;-78
2022/06/02 02:07:23;;;;;;;0.52;0.52;;;5.70;99.90;;;;;;5078453;28;20235;-79
2022/06/02 02:10:10;;;;;;;0.60;0.60;;;5.70;99.90;;;;;;5078794;28;20189;-78
2022/06/02 02:12:58;;;;;;;0.60;0.60;;;5.60;99.90;;;;;;5076628;28;20261;-77
2022/06/02 02:15:41;;;;;;;0.60;0.60;;;5.60;99.90;;;;;;5076508;28;20203;-80
2022/06/02 02:18:22;;;;;;;0.85;0.85;;;5.60;99.90;;;;;;5059933;28;20195;-79
2022/06/02 02:20:51;;;;;;;0.60;0.60;;;5.60;99.90;;;;;;5060767;28;20778;-79
2022/06/02 02:23:21;;;;;;;0.70;0.70;;;5.60;99.90;;;;;;5060681;28;20216;-80
2022/06/02 02:25:57;;;;;;;0.70;0.70;;;5.60;99.90;;;;;;5056297;28;20208;-78
2022/06/02 02:29:04;;;;;;;0.52;0.52;;;5.60;99.90;;;;;;5040525;28;20683;-78
2022/06/02 02:31:56;;;;;;;0.70;0.70;;;5.60;99.90;;;;;;5027693;28;20296;-78
2022/06/02 02:34:35;;;;;;;0.70;0.70;;;5.60;99.90;;;;;;5041141;28;20277;-79
2022/06/02 02:37:33;;;;;;;0.70;0.70;;;5.60;99.90;;;;;;5061151;28;20194;-79
2022/06/02 02:40:07;;;;;;;0.80;0.80;;;5.60;99.90;;;;;;5059175;28;20627;-78
2022/06/02 02:42:53;;;;;;;1.10;1.00;;;5.60;99.90;;;;;;5063098;28;20683;-78
2022/06/02 02:45:46;;;;;;;0.75;0.75;;;5.60;99.90;;;;;;5049840;28;20228;-80
2022/06/02 02:48:12;;;;;;;0.50;0.50;;;5.60;99.90;;;;;;5063509;28;20614;-79
2022/06/02 02:51:01;;;;;;;0.60;0.60;;;5.60;99.90;;;;;;5063434;28;20240;-78
2022/06/02 02:53:31;;;;;;;0.60;0.60;;;5.60;99.90;;;;;;5081118;28;20181;-79
2022/06/02 02:56:18;;;;;;;0.52;0.52;;;5.60;99.90;;;;;;5063657;28;20189;-78
2022/06/02 02:59:05;;;;;;;0.70;0.70;;;5.60;99.90;;;;;;5063202;28;20197;-78
2022/06/02 03:01:42;;;;;;;0.60;0.60;;;5.70;99.90;;;;;;5067392;28;20260;-78
2022/06/02 03:04:11;;;;;;;0.60;0.60;;;5.80;99.90;;;;;;5069957;28;20239;-79
2022/06/02 03:06:42;;;;;;;0.60;0.60;;;5.80;99.90;;;;;;5058210;28;20578;-79
2022/06/02 03:09:08;;;;;;;0.70;0.70;;;5.90;99.90;;;;;;5058475;28;20194;-81
2022/06/02 03:11:52;;;;;;;0.70;0.70;;;5.90;99.90;;;;;;5059466;28;20224;-79
2022/06/02 03:14:27;;;;;;;0.60;0.60;;;6.00;99.90;;;;;;5059366;28;20300;-80
2022/06/02 03:17:13;;;;;;;0.52;0.52;;;6.20;99.90;;;;;;5060167;28;20264;-79
2022/06/02 03:19:48;;;;;;;0.82;0.82;;;6.30;99.90;;;;;;5011696;28;20337;-80
2022/06/02 03:22:34;;;;;;;0.60;0.60;;;6.40;99.90;;;;;;5045196;28;20691;-81
2022/06/02 03:25:33;;;;;;;0.57;0.57;;;6.40;99.90;;;;;;5060094;28;20549;-79
2022/06/02 03:28:17;;;;;;;0.50;0.50;;;6.50;99.90;;;;;;5019339;28;20357;-80
2022/06/02 03:31:09;;;;;;;0.60;0.60;;;6.60;99.90;;;;;;5038818;28;20206;-80
2022/06/02 03:34:01;;;;;;;0.60;0.60;;;6.80;99.90;;;;;;5050163;28;20193;-80
2022/06/02 03:36:45;;;;;;;0.60;0.60;;;6.80;99.90;;;;;;5060808;28;20664;-79
2022/06/02 03:39:39;;;;;;;0.60;0.60;;;6.90;99.90;;;;;;5059401;28;20201;-79
2022/06/02 03:42:21;;;;;;;1.35;1.25;;;7.00;99.90;;;;;;5060305;28;20265;-80
2022/06/02 03:45:04;;;;;;;0.70;0.70;;;7.00;99.90;;;;;;5060225;28;20619;-79
2022/06/02 03:48:05;;;;;;;0.60;0.60;;;7.00;99.90;;;;;;5064779;28;20200;-80
2022/06/02 03:50:52;;;;;;;0.70;0.70;;;7.10;99.90;;;;;;5064968;28;20198;-79
2022/06/02 03:53:20;;;;;;;0.60;0.60;;;7.10;99.90;;;;;;5065201;28;20197;-79
2022/06/02 03:55:55;;;;;;;0.60;0.60;;;7.10;99.90;;;;;;5065426;28;20193;-79
2022/06/02 03:59:04;;;;;;;0.70;0.70;;;7.00;99.90;;;;;;5065252;28;20229;-79
2022/06/02 04:01:38;;;;;;;0.70;0.70;;;7.00;99.90;;;;;;5076542;28;20224;-79
2022/06/02 04:04:29;;;;;;;0.70;0.70;;;7.00;99.90;;;;;;5058288;28;20734;-80
2022/06/02 04:07:28;;;;;;;0.70;0.70;;;6.90;99.90;;;;;;5058078;28;20201;-79
2022/06/02 04:10:08;;;;;;;0.70;0.70;;;7.00;99.90;;;;;;5057959;28;20190;-79
2022/06/02 04:15:59;;;;;;;0.73;0.73;;;6.90;99.90;;;;;;5048312;28;20189;-80
2022/06/02 04:18:46;;;;;;;0.55;0.55;;;6.90;99.90;;;;;;5051597;28;20207;-79
2022/06/02 04:21:12;;;;;;;0.60;0.60;;;6.80;99.90;;;;;;5050069;28;20700;-80
2022/06/02 04:23:47;;;;;;;0.60;0.60;;;6.90;99.90;;;;;;5074747;28;20215;-80
2022/06/02 04:26:25;;;;;;;0.88;0.88;;;6.90;99.90;;;;;;5060827;28;20554;-80
2022/06/02 04:29:33;;;;;;;0.65;0.65;;;6.90;99.90;;;;;;5061027;28;20196;-80
2022/06/02 04:32:07;;;;;;;0.60;0.60;;;7.00;99.90;;;;;;5032507;28;20687;-79
2022/06/02 04:34:54;;;;;;;1.00;1.00;;;7.10;99.90;;;;;;5056619;28;20193;-79
2022/06/02 04:37:29;;;;;;;0.65;0.65;;;7.10;99.90;;;;;;5071182;28;20212;-80
2022/06/02 04:40:10;;;;;;;0.60;0.60;;;7.20;99.90;;;;;;5075939;28;20196;-80
2022/06/02 04:42:46;;;;;;;0.60;0.60;;;7.30;99.90;;;;;;5075607;28;20667;-80
2022/06/02 04:45:18;;;;;;;0.70;0.70;;;7.40;99.90;;;;;;5076517;28;20701;-79
2022/06/02 04:48:12;;;;;;;0.60;0.60;;;7.60;99.90;;;;;;5076504;28;20192;-80
2022/06/02 04:50:43;;;;;;;0.50;0.50;;;7.70;99.90;;;;;;5075370;28;20193;-81
2022/06/02 04:53:19;;;;;;;0.60;0.60;;;7.80;99.90;;;;;;5074719;28;20189;-81
2022/06/02 04:56:12;;;;;;;0.60;0.60;;;7.90;99.90;;;;;;5058281;28;20233;-80
2022/06/02 04:58:44;;;;;;;0.70;0.70;;;7.90;99.90;;;;;;5077303;28;20219;-80
2022/06/02 05:01:31;;;;;;;0.80;0.80;;;8.00;99.90;;;;;;5060097;28;20189;-80
2022/06/02 05:04:23;;;;;;;0.82;0.82;;;8.00;99.90;;;;;;5060251;28;20208;-80
2022/06/02 05:06:59;;;;;;;0.60;0.60;;;8.00;99.90;;;;;;5060826;28;20205;-79
2022/06/02 05:09:40;;;;;;;0.60;0.60;;;8.00;99.90;;;;;;5060843;28;20196;-80
2022/06/02 05:12:21;;;;;;;0.70;0.70;;;8.10;99.90;;;;;;5060763;28;20205;-80
2022/06/02 05:14:56;;;;;;;0.60;0.60;;;8.10;99.90;;;;;;5060835;28;20200;-80
2022/06/02 05:18:13;;;;;;;0.70;0.70;;;8.20;99.90;;;;;;5060374;28;20698;-79
2022/06/02 05:20:57;;;;;;;0.85;0.85;;;8.20;99.90;;;;;;5009720;28;20243;-80
2022/06/02 05:23:47;;;;;;;0.60;0.60;;;8.30;99.90;;;;;;4980018;28;20806;-80
2022/06/02 05:26:31;;;;;;;1.10;1.10;;;8.40;99.90;;;;;;4980570;28;20290;-79
2022/06/02 05:28:58;;;;;;;0.70;0.70;;;8.50;99.90;;;;;;4996595;28;20274;-80
2022/06/02 05:31:39;;;;;;;0.60;0.60;;;8.50;99.90;;;;;;4980820;28;20238;-80
2022/06/02 05:34:35;;;;;;;0.70;0.70;;;8.50;99.90;;;;;;4983251;28;20255;-80
2022/06/02 05:37:17;;;;;;;0.77;0.77;;;8.60;99.90;;;;;;4961016;28;20742;-81
2022/06/02 05:40:17;;;;;;;0.52;0.52;;;8.70;99.90;;;;;;4976908;28;20637;-80
2022/06/02 05:42:52;;;;;;;0.60;0.60;;;8.80;99.90;;;;;;4964346;28;20675;-81
2022/06/02 05:45:49;;;;;;;0.60;0.60;;;8.90;99.90;;;;;;4960640;28;20226;-81
2022/06/02 05:48:21;;;;;;;0.60;0.60;;;9.00;99.90;;;;;;4957730;28;20219;-80
2022/06/02 05:51:13;;;;;;;0.50;0.50;;;9.00;99.90;;;;;;4960604;28;20196;-81
2022/06/02 05:53:57;;;;;;;0.60;0.60;;;9.20;99.90;;;;;;4971705;28;20282;-81
2022/06/02 05:56:49;;;;;;;0.50;0.50;;;9.40;99.90;;;;;;5036499;28;20665;-80
2022/06/02 05:59:26;;;;;;;0.60;0.60;;;9.60;99.90;;;;;;5037336;28;20196;-80
2022/06/02 06:02:16;;;;;;;0.60;0.60;;;9.60;99.90;;;;;;5036428;28;20296;-80
2022/06/02 06:04:57;;;;;;;0.50;0.50;;;9.60;99.90;;;;;;5037107;28;20206;-81
2022/06/02 06:07:48;;;;;;;0.93;0.77;;;9.70;99.90;;;;;;5019309;28;20193;-81
2022/06/02 06:10:29;;;;;;;0.60;0.60;;;10.00;99.90;;;;;;5036616;28;20190;-81
2022/06/02 06:13:12;;;;;;;0.60;0.60;;;10.20;99.90;;;;;;5039899;28;20201;-80
2022/06/02 06:15:55;;;;;;;0.60;0.60;;;10.40;99.90;;;;;;5039578;28;20287;-80
2022/06/02 06:18:39;;;;;;;0.73;0.73;;;10.60;99.90;;;;;;5057240;28;20185;-81
2022/06/02 06:21:17;;;;;;;0.60;0.60;;;10.80;99.90;;;;;;5059902;28;20224;-80
2022/06/02 06:23:52;;;;;;;0.70;0.70;;;11.00;99.90;;;;;;5059492;28;20674;-81
2022/06/02 06:26:52;;;;;;;0.55;0.55;;;11.30;99.90;;;;;;5059718;28;20521;-80
2022/06/02 06:29:46;;;;;;;0.95;0.95;;;11.50;99.90;;;;;;5059309;28;20199;-81
2022/06/02 06:32:11;;;;;;;0.52;0.52;;;11.80;99.90;;;;;;5059466;28;20205;-80
2022/06/02 06:35:07;;;;;;;0.68;0.68;;;12.00;99.90;;;;;;5059866;28;20206;-81
2022/06/02 06:38:10;;;;;;;0.63;0.63;;;12.10;99.90;;;;;;5067089;28;20201;-80
2022/06/02 06:40:46;;;;;;;0.60;0.60;;;12.40;99.90;;;;;;5076379;28;20264;-81
2022/06/02 06:43:30;;;;;;;0.45;0.45;;;12.60;99.90;;;;;;5076090;28;20200;-82
2022/06/02 06:46:03;;;;;;;0.65;0.65;;;12.80;99.90;;;;;;5077882;28;20280;-80
2022/06/02 06:48:37;;;;;;;0.50;0.50;;;12.90;99.90;;;;;;5059711;28;20193;-81
2022/06/02 06:51:28;;;;;;;0.95;0.77;;;13.10;99.90;;;;;;5059295;28;20189;-81
2022/06/02 06:54:23;;;;;;;0.45;0.45;;;13.30;99.90;;;;;;5059889;28;20257;-82
2022/06/02 06:57:07;;;;;;;0.80;0.60;;;13.70;99.90;;;;;;5059408;28;20201;-81
2022/06/02 06:59:54;;;;;;;0.50;0.50;;;13.90;99.90;;;;;;5060031;28;20573;-81
2022/06/02 07:02:57;;;;;;;0.55;0.55;;;14.10;99.90;;;;;;5059608;28;20197;-82
2022/06/02 07:05:33;;;;;;;0.57;0.57;;;14.40;99.90;;;;;;5060837;28;20204;-81
2022/06/02 07:08:22;;;;;;;0.60;0.60;;;14.60;99.90;;;;;;5050956;28;20193;-82
2022/06/02 07:11:06;;;;;;;0.50;0.50;;;14.80;99.90;;;;;;5063823;28;20260;-81
2022/06/02 07:13:55;;;;;;;1.00;0.93;;;15.10;99.90;;;;;;5063481;28;20201;-81
2022/06/02 07:16:36;;;;;;;0.60;0.60;;;15.20;99.90;;;;;;5079845;28;20201;-81
2022/06/02 07:19:25;;;;;;;0.80;0.55;;;15.10;99.90;;;;;;5062779;28;20207;-82
2022/06/02 07:22:20;;;;;;;0.50;0.50;;;15.00;99.90;;;;;;5062496;28;20618;-81
2022/06/02 07:24:49;;;;;;;1.17;1.00;;;15.10;99.90;;;;;;5063262;28;20756;-82
2022/06/02 07:27:36;;;;;;;0.57;0.57;;;15.20;99.90;;;;;;5063087;28;20628;-81
2022/06/02 07:30:23;;;;;;;0.55;0.55;;;15.10;99.90;;;;;;5063035;28;20228;-83
2022/06/02 07:33:23;;;;;;;0.70;0.70;;;14.90;99.90;;;;;;5077561;28;20281;-82
2022/06/02 07:36:23;;;;;;;0.50;0.50;;;14.70;99.90;;;;;;5059632;28;20255;-81
2022/06/02 07:39:14;;;;;;;0.55;0.52;;;14.40;99.90;;;;;;5059913;28;20205;-82
2022/06/02 07:41:48;;;;;;;0.50;0.50;;;14.40;99.90;;;;;;5070150;28;20295;-82
2022/06/02 07:44:38;;;;;;;0.88;0.70;;;14.10;99.90;;;;;;5082441;28;20211;-82
2022/06/02 07:47:10;;;;;;;0.60;0.60;;;14.20;99.90;;;;;;5083301;28;20203;-82
2022/06/02 07:49:45;;;;;;;0.40;0.40;;;14.50;99.90;;;;;;5082730;28;20188;-82
2022/06/02 07:52:14;;;;;;;0.52;0.50;;;14.80;99.90;;;;;;5082946;28;20202;-81
2022/06/02 07:54:44;;;;;;;0.50;0.50;;;15.10;99.90;;;;;;5082001;28;20246;-83
2022/06/02 07:57:57;;;;;;;0.40;0.40;;;15.20;99.90;;;;;;5082019;28;20203;-82
2022/06/02 08:00:27;;;;;;;0.40;0.40;;;15.10;99.90;;;;;;5000821;28;20238;-82
2022/06/02 08:03:04;;;;;;;0.40;0.40;;;14.90;99.90;;;;;;5000621;28;20205;-83
2022/06/02 08:05:46;;;;;;;1.55;1.02;;;14.80;99.90;;;;;;5017348;28;20272;-82
2022/06/02 08:09:08;;;;;;;0.52;0.52;;;14.90;99.90;;;;;;5003934;28;20221;-83
2022/06/02 08:12:03;;;;;;;0.50;0.50;;;15.00;99.90;;;;;;4966323;28;20210;-80
2022/06/02 08:14:53;;;;;;;0.40;0.40;;;14.80;99.90;;;;;;4981560;28;20205;-83
2022/06/02 08:17:22;;;;;;;0.32;0.32;;;14.90;99.90;;;;;;4997241;28;20203;-82
2022/06/02 08:20:06;;;;;;;0.60;0.60;;;15.00;99.90;;;;;;4982743;28;20199;-83
2022/06/02 08:22:59;;;;;;;0.40;0.40;;;14.90;99.90;;;;;;4978885;28;20216;-82
2022/06/02 08:25:37;;;;;;;0.38;0.38;;;15.00;99.90;;;;;;4978675;28;20220;-82
2022/06/02 08:28:18;;;;;;;0.40;0.40;;;15.00;99.90;;;;;;4963062;28;20204;-83
2022/06/02 08:31:07;;;;;;;0.60;0.60;;;15.20;99.90;;;;;;4998973;28;20672;-83
2022/06/02 08:33:43;;;;;;;0.40;0.40;;;15.40;99.90;;;;;;5057076;28;20197;-81
2022/06/02 08:36:17;;;;;;;0.50;0.50;;;15.60;99.90;;;;;;5061923;28;20231;-82
2022/06/02 08:38:55;;;;;;;0.50;0.50;;;16.30;99.90;;;;;;5022161;28;20233;-82
2022/06/02 08:41:35;;;;;;;0.40;0.40;;;16.70;99.90;;;;;;5038159;28;20194;-82
2022/06/02 08:44:07;;;;;;;0.30;0.30;;;17.10;99.90;;;;;;5038146;28;20769;-83
2022/06/02 08:46:51;;;;;;;1.65;0.55;;;17.20;99.90;;;;;;5038349;28;20198;-82
2022/06/02 08:49:20;;;;;;;2.28;0.50;;;17.10;99.90;;;;;;5038186;28;20230;-84
2022/06/02 08:52:24;;;;;;;0.40;0.40;;;16.80;99.90;;;;;;5038462;28;20198;-83
2022/06/02 08:55:02;;;;;;;0.57;0.50;;;16.60;99.90;;;;;;5021387;28;20198;-83
2022/06/02 08:57:41;;;;;;;0.30;0.30;;;16.30;99.90;;;;;;5037880;28;20198;-84
2022/06/02 09:00:41;;;;;;;0.40;0.40;;;16.40;99.90;;;;;;5040527;28;20203;-82
2022/06/02 09:03:44;;;;;;;0.50;0.50;;;16.10;99.90;;;;;;5059385;28;20201;-83
2022/06/02 09:06:47;;;;;;;0.30;0.30;;;15.80;99.90;;;;;;5058771;28;20300;-84
2022/06/02 09:09:44;;;;;;;0.40;0.40;;;15.60;99.90;;;;;;5059010;28;20193;-83
2022/06/02 09:12:48;;;;;;;0.30;0.30;;;15.80;99.90;;;;;;5057449;28;20189;-82
2022/06/02 09:15:21;;;;;;;0.55;0.55;;;16.10;99.90;;;;;;5058134;28;20204;-83
2022/06/02 09:17:56;;;;;;;0.68;0.68;;;16.70;99.90;;;;;;5057648;28;20204;-83
2022/06/02 09:21:06;;;;;;;0.35;0.35;;;17.30;99.90;;;;;;5061675;28;20702;-83
2022/06/02 09:23:47;;;;;;;0.40;0.40;;;17.50;99.90;;;;;;5077065;28;20204;-83
2022/06/02 09:26:18;;;;;;;0.65;0.65;;;17.30;99.90;;;;;;5077857;28;20200;-83
2022/06/02 09:29:02;;;;;;;0.30;0.30;;;17.20;99.90;;;;;;5079198;28;20193;-83
2022/06/02 09:31:51;;;;;;;0.30;0.30;;;17.10;99.90;;;;;;5056816;28;20682;-83
2022/06/02 09:34:31;;;;;;;0.45;0.45;;;17.20;99.90;;;;;;5072140;28;20201;-83
2022/06/02 09:37:23;;;;;;;0.30;0.30;;;17.10;99.90;;;;;;5060999;28;20196;-83
2022/06/02 09:39:51;;;;;;;0.47;0.47;;;16.90;99.90;;;;;;5060756;28;20663;-83
2022/06/02 09:42:39;;;;;;;0.40;0.40;;;16.80;99.90;;;;;;5060805;28;20224;-84
2022/06/02 09:45:38;;;;;;;0.30;0.30;;;16.90;99.90;;;;;;5060283;28;20671;-84
2022/06/02 09:48:23;;;;;;;0.30;0.30;;;16.80;99.90;;;;;;5077498;28;20197;-82
2022/06/02 09:51:03;;;;;;;0.45;0.45;;;16.80;99.90;;;;;;5059933;28;20243;-84
2022/06/02 09:53:38;;;;;;;1.13;0.95;;;17.20;99.90;;;;;;5060199;28;20705;-84
2022/06/02 09:56:13;;;;;;;0.47;0.47;;;18.30;99.90;;;;;;5053059;28;20207;-83
2022/06/02 09:58:53;;;;;;;0.20;0.20;;;19.10;99.90;;;;;;5056945;28;20204;-84
2022/06/02 10:01:34;;;;;;;0.43;0.35;;;19.50;99.90;;;;;;5076218;28;20256;-85
2022/06/02 10:04:18;;;;;;;0.20;0.20;;;19.90;99.90;;;;;;5060681;28;20208;-84
2022/06/02 10:07:08;;;;;;;0.40;0.40;;;19.60;99.90;;;;;;5077038;28;20193;-82
2022/06/02 10:09:46;;;;;;;0.45;0.45;;;19.00;99.90;;;;;;5078245;28;20196;-83
2022/06/02 10:15:38;;;;;;;0.30;0.30;;;18.40;99.90;;;;;;5078299;28;20196;-84
2022/06/02 10:18:26;;;;;;;0.30;0.30;;;17.80;99.90;;;;;;5077472;28;20559;-85
2022/06/02 10:21:29;;;;;;;0.20;0.20;;;17.30;99.90;;;;;;5077102;28;20240;-85
2022/06/02 10:24:01;;;;;;;0.30;0.30;;;17.20;99.90;;;;;;5078878;28;20656;-84
2022/06/02 10:26:41;;;;;;;0.52;0.52;;;17.10;99.90;;;;;;5078796;28;20279;-83
2022/06/02 10:29:31;;;;;;;0.45;0.45;;;17.10;99.90;;;;;;5079364;28;20188;-83
2022/06/02 10:32:16;;;;;;;0.40;0.40;;;17.30;99.90;;;;;;5080437;28;20595;-84
2022/06/02 10:35:15;;;;;;;0.30;0.30;;;17.60;99.90;;;;;;5058639;28;20254;-84
2022/06/02 10:38:08;;;;;;;0.30;0.30;;;17.70;99.90;;;;;;5056523;28;20208;-84
2022/06/02 10:40:45;;;;;;;0.63;0.63;;;17.80;99.90;;;;;;5059955;28;20656;-84
2022/06/02 10:43:48;;;;;;;0.40;0.40;;;17.90;99.90;;;;;;5060474;28;20197;-84
2022/06/02 10:46:17;;;;;;;0.35;0.35;;;18.10;99.90;;;;;;5060033;28;20299;-84
2022/06/02 10:49:11;;;;;;;0.20;0.20;;;18.10;99.90;;;;;;5061939;28;20660;-84
2022/06/02 10:52:23;;;;;;;0.30;0.30;;;18.10;99.90;;;;;;5060055;28;20202;-84
2022/06/02 10:55:07;;;;;;;0.40;0.40;;;18.20;99.90;;;;;;5060426;28;20270;-83
2022/06/02 10:58:10;;;;;;;0.20;0.20;;;18.40;99.90;;;;;;5098165;28;20227;-83
2022/06/02 11:01:13;;;;;;;0.30;0.30;;;18.10;99.90;;;;;;5083439;28;20682;-84
2022/06/02 11:04:21;;;;;;;0.30;0.30;;;17.90;99.90;;;;;;5083857;28;20325;-84
2022/06/02 11:07:33;;;;;;;0.30;0.30;;;17.90;99.90;;;;;;5101710;28;20708;-84
2022/06/02 11:10:11;;;;;;;0.30;0.30;;;17.90;99.90;;;;;;5083315;28;20735;-84
2022/06/02 11:12:55;;;;;;;0.28;0.28;;;17.70;99.90;;;;;;5082811;28;20219;-84
2022/06/02 11:15:39;;;;;;;0.28;0.28;;;17.70;99.90;;;;;;5082756;28;20286;-84
2022/06/02 11:18:33;;;;;;;0.28;0.28;;;17.80;99.90;;;;;;5082581;28;20196;-84
2022/06/02 11:21:20;;;;;;;0.60;0.40;;;18.10;99.90;;;;;;5082919;28;20236;-85
2022/06/02 11:24:21;;;;;;;0.30;0.30;;;18.10;99.90;;;;;;5101632;28;20289;-84
2022/06/02 11:27:09;;;;;;;0.30;0.30;;;18.20;99.90;;;;;;5070910;28;20204;-84
2022/06/02 11:30:12;;;;;;;0.38;0.38;;;18.90;99.90;;;;;;5082672;28;20195;-83
2022/06/02 11:33:15;;;;;;;0.45;0.45;;;19.60;99.90;;;;;;5080679;28;20325;-83
2022/06/02 11:36:01;;;;;;;0.38;0.30;;;20.30;99.90;;;;;;5062526;28;20659;-84
2022/06/02 11:38:55;;;;;;;0.22;0.22;;;20.50;99.90;;;;;;5062533;28;20207;-84
2022/06/02 11:41:47;;;;;;;0.50;0.50;;;20.40;99.90;;;;;;5062190;28;20287;-85
2022/06/02 11:44:32;;;;;;;0.20;0.20;;;20.30;99.90;;;;;;5062806;28;20211;-83
2022/06/02 11:47:19;;;;;;;0.38;0.22;;;19.60;99.90;;;;;;5062840;28;20219;-83
2022/06/02 11:50:21;;;;;;;0.40;0.35;;;19.90;99.90;;;;;;5062909;28;20192;-84
2022/06/02 11:53:06;;;;;;;0.40;0.40;;;20.30;99.90;;;;;;5062759;28;20318;-84
2022/06/02 11:55:50;;;;;;;0.60;0.60;;;20.70;99.90;;;;;;5080791;28;20285;-84
2022/06/02 11:58:36;;;;;;;0.63;0.50;;;20.80;99.90;;;;;;5062267;28;20197;-85
2022/06/02 12:01:21;;;;;;;0.30;0.30;;;20.80;99.90;;;;;;5061618;28;20212;-84
2022/06/02 12:04:17;;;;;;;0.38;0.38;;;20.70;99.90;;;;;;5062029;28;20296;-84
2022/06/02 12:07:10;;;;;;;0.60;0.35;;;19.80;99.90;;;;;;5061988;28;20197;-85
2022/06/02 12:10:13;;;;;;;1.38;0.73;;;19.60;99.90;;;;;;5061782;28;20193;-84
2022/06/02 12:13:17;;;;;;;0.32;0.32;;;18.90;99.90;;;;;;5061285;28;20278;-84
2022/06/02 12:16:09;;;;;;;0.40;0.40;;;18.70;99.90;;;;;;5075387;28;20296;-84
2022/06/02 12:18:44;;;;;;;0.20;0.20;;;18.30;99.90;;;;;;5061997;28;20217;-84
2022/06/02 12:21:26;;;;;;;0.30;0.30;;;18.40;99.90;;;;;;5061942;28;20220;-84
2022/06/02 12:23:58;;;;;;;0.47;0.47;;;18.20;99.90;;;;;;5041645;28;20205;-84
2022/06/02 12:26:55;;;;;;;0.25;0.25;;;18.10;99.90;;;;;;5053050;28;20201;-84
2022/06/02 12:29:29;;;;;;;0.40;0.40;;;18.40;99.90;;;;;;5095094;28;20193;-85
2022/06/02 12:32:34;;;;;;;0.38;0.38;;;18.50;99.90;;;;;;5079468;28;20188;-83
2022/06/02 12:35:02;;;;;;;0.28;0.28;;;18.80;99.90;;;;;;5061007;28;20226;-84
2022/06/02 12:37:31;;;;;;;0.30;0.30;;;19.40;99.90;;;;;;5095080;28;20193;-85
2022/06/02 12:40:32;;;;;;;0.20;0.20;;;19.70;99.90;;;;;;5095031;28;20197;-84
2022/06/02 12:43:18;;;;;;;6.72;0.52;;;19.70;99.90;;;;;;5061054;28;20629;-84
2022/06/02 12:45:46;;;;;;;0.22;0.22;;;19.80;99.90;;;;;;5060892;28;20208;-84
2022/06/02 12:48:35;;;;;;;0.43;0.40;;;20.30;99.90;;;;;;5060370;28;20240;-84
2022/06/02 12:51:21;;;;;;;0.30;0.30;;;20.50;99.90;;;;;;5059987;28;20196;-84
2022/06/02 12:54:02;;;;;;;0.35;0.35;;;20.60;99.90;;;;;;5060889;28;20201;-84
2022/06/02 12:56:57;;;;;;;0.55;0.55;;;20.40;99.90;;;;;;5060901;28;20197;-85
2022/06/02 12:59:48;;;;;;;0.30;0.30;;;19.90;99.90;;;;;;5060752;28;20287;-83
2022/06/02 13:02:29;;;;;;;0.20;0.20;;;19.60;99.90;;;;;;5078602;28;20193;-84
2022/06/02 13:05:16;;;;;;;0.30;0.30;;;19.00;99.90;;;;;;5078077;28;20321;-85
2022/06/02 13:08:08;;;;;;;0.20;0.20;;;18.90;99.90;;;;;;5073481;28;20558;-83
2022/06/02 13:10:54;;;;;;;0.30;0.30;;;18.90;99.90;;;;;;5082750;28;20275;-84
2022/06/02 13:13:34;;;;;;;0.55;0.40;;;18.70;99.90;;;;;;5066749;28;20188;-83
2022/06/02 13:16:32;;;;;;;0.47;0.47;;;18.80;99.90;;;;;;5067066;28;20558;-83
2022/06/02 13:19:36;;;;;;;0.30;0.30;;;18.70;99.90;;;;;;5070581;28;20574;-84
2022/06/02 13:22:31;;;;;;;0.20;0.20;;;18.50;99.90;;;;;;5086571;28;20358;-84
2022/06/02 13:25:30;;;;;;;0.20;0.20;;;18.40;99.90;;;;;;5049292;28;20226;-85
2022/06/02 13:28:34;;;;;;;0.30;0.30;;;18.30;99.90;;;;;;5078033;28;20698;-84
2022/06/02 13:31:26;;;;;;;0.20;0.20;;;18.80;99.90;;;;;;5080311;28;20270;-84
2022/06/02 13:34:23;;;;;;;0.32;0.32;;;18.90;99.90;;;;;;5062648;28;20227;-84
2022/06/02 13:37:11;;;;;;;0.40;0.40;;;19.30;99.90;;;;;;5056633;28;20201;-85
2022/06/02 13:39:45;;;;;;;0.95;0.75;;;19.80;99.90;;;;;;5056433;28;20621;-84
2022/06/02 13:42:14;;;;;;;0.50;0.50;;;19.60;99.90;;;;;;5059243;28;20196;-84
2022/06/02 13:44:49;;;;;;;0.20;0.20;;;19.10;99.90;;;;;;5059167;28;20347;-84
2022/06/02 13:47:36;;;;;;;0.50;0.40;;;19.40;99.90;;;;;;5059320;28;20752;-84
2022/06/02 13:50:31;;;;;;;0.20;0.20;;;19.10;99.90;;;;;;5059784;28;20283;-85
2022/06/02 13:53:16;;;;;;;0.35;0.35;;;19.30;99.90;;;;;;5076983;28;20697;-83
2022/06/02 13:59:37;;;;;;;0.28;0.28;;;20.00;99.90;;;;;;5076937;28;20219;-84
2022/06/02 14:02:42;;;;;;;0.20;0.20;;;19.90;99.90;;;;;;5057756;28;20197;-84
2022/06/02 14:05:48;;;;;;;0.20;0.20;;;19.30;99.90;;;;;;5075402;28;20305;-84
2022/06/02 14:08:51;;;;;;;0.40;0.40;;;19.20;99.90;;;;;;5076638;28;20674;-84
2022/06/02 14:11:23;;;;;;;0.50;0.50;;;19.60;99.90;;;;;;5059553;28;20288;-83
2022/06/02 14:14:22;;;;;;;1.05;0.82;;;19.70;99.90;;;;;;5076185;28;20196;-84
2022/06/02 14:17:25;;;;;;;0.22;0.22;;;20.00;99.90;;;;;;5056679;28;20563;-83
2022/06/02 14:20:13;;;;;;;0.20;0.20;;;20.30;99.90;;;;;;5095360;28;20349;-84
2022/06/02 14:23:12;;;;;;;0.20;0.20;;;20.60;99.90;;;;;;5058870;28;20220;-84
2022/06/02 14:25:57;;;;;;;0.60;0.40;;;21.20;99.90;;;;;;5059410;28;20225;-83
2022/06/02 14:28:49;;;;;;;0.30;0.30;;;21.90;99.90;;;;;;5060213;28;20207;-85
2022/06/02 14:31:30;;;;;;;0.30;0.30;;;21.90;99.90;;;;;;5060232;28;20208;-84
2022/06/02 14:34:20;;;;;;;0.20;0.20;;;21.90;99.90;;;;;;5066053;28;20243;-84
2022/06/02 14:36:52;;;;;;;0.40;0.40;;;22.20;99.90;;;;;;5040518;28;20197;-85
2022/06/02 14:39:27;;;;;;;0.20;0.20;;;22.60;99.90;;;;;;5057477;28;20189;-84